Time;durP1;ratioP1;P1;durP2;ratioP2;P2;SDS_P1;SDS_P2;PMS_P1;PMS_P2;Temp;Humidity;BMP_temperature;BMP_pressure;BME280_temperature;BME280_humidity;BME280_pressure;Samples;Min_cycle;Max_cycle;Signal;HPM_P1;HPM_P2
2024/02/29 00:00:11;;;;;;;41.75;21.92;;;0.30;99.90;;;;;;5018677;28;20236;-53
2024/02/29 00:02:37;;;;;;;37.53;22.92;;;0.30;99.90;;;;;;5019220;28;20186;-49
2024/02/29 00:05:04;;;;;;;33.95;22.85;;;0.30;99.90;;;;;;5019009;28;20183;-50
2024/02/29 00:07:30;;;;;;;54.30;22.88;;;0.30;99.90;;;;;;5019472;28;20182;-47
2024/02/29 00:09:56;;;;;;;50.78;24.52;;;0.30;99.90;;;;;;5022273;28;20214;-50
2024/02/29 00:12:22;;;;;;;41.43;24.00;;;0.20;99.90;;;;;;5022269;28;20186;-51
2024/02/29 00:14:47;;;;;;;37.50;23.40;;;0.20;99.90;;;;;;5022896;28;20189;-47
2024/02/29 00:17:13;;;;;;;44.67;22.13;;;0.20;99.90;;;;;;5022705;28;20226;-45
2024/02/29 00:19:38;;;;;;;43.00;21.60;;;0.30;99.90;;;;;;5022989;28;20200;-54
2024/02/29 00:22:04;;;;;;;37.10;22.40;;;0.30;99.90;;;;;;5023385;28;20610;-52
2024/02/29 00:24:30;;;;;;;35.87;21.07;;;0.30;99.90;;;;;;5022374;28;20221;-53
2024/02/29 00:26:56;;;;;;;39.03;22.98;;;0.30;99.90;;;;;;5022830;28;20190;-56
2024/02/29 00:29:26;;;;;;;43.20;23.20;;;0.40;99.90;;;;;;5022557;28;20177;-53
2024/02/29 00:31:52;;;;;;;37.42;22.98;;;0.50;99.90;;;;;;5021468;28;20262;-56
2024/02/29 00:34:18;;;;;;;32.73;22.53;;;0.60;99.90;;;;;;5022389;28;20185;-56
2024/02/29 00:36:44;;;;;;;32.97;22.27;;;0.60;99.90;;;;;;5014265;28;20512;-52
2024/02/29 00:39:09;;;;;;;38.37;21.53;;;0.60;99.90;;;;;;5022472;28;20194;-55
2024/02/29 00:41:35;;;;;;;37.97;24.67;;;0.60;99.90;;;;;;5022015;28;20533;-53
2024/02/29 00:44:01;;;;;;;33.30;22.20;;;0.60;99.90;;;;;;5022720;28;20189;-56
2024/02/29 00:46:26;;;;;;;41.07;23.00;;;0.60;99.90;;;;;;5021735;28;20190;-55
2024/02/29 00:48:52;;;;;;;40.73;22.27;;;0.60;99.90;;;;;;5038015;28;20663;-53
2024/02/29 00:51:19;;;;;;;39.13;22.00;;;0.50;99.90;;;;;;5022177;28;20194;-46
2024/02/29 00:53:45;;;;;;;33.88;23.63;;;0.50;99.90;;;;;;5021725;28;20194;-51
2024/02/29 00:56:11;;;;;;;34.83;24.20;;;0.50;99.90;;;;;;5022179;28;20872;-44
2024/02/29 00:58:37;;;;;;;34.58;23.13;;;0.50;99.90;;;;;;5021825;28;20183;-48
2024/02/29 01:01:03;;;;;;;35.13;22.93;;;0.40;99.90;;;;;;5022582;28;20557;-45
2024/02/29 01:03:28;;;;;;;35.97;23.30;;;0.40;99.90;;;;;;5022171;28;20925;-51
2024/02/29 01:05:54;;;;;;;38.77;22.83;;;0.30;99.90;;;;;;5021950;28;20946;-47
2024/02/29 01:08:20;;;;;;;34.37;22.90;;;0.30;99.90;;;;;;5021941;28;20187;-47
2024/02/29 01:10:47;;;;;;;35.83;23.47;;;0.20;99.90;;;;;;5021883;28;20263;-51
2024/02/29 01:13:12;;;;;;;29.98;22.45;;;0.20;99.90;;;;;;5021618;28;20679;-45
2024/02/29 01:15:38;;;;;;;34.50;23.70;;;0.20;99.90;;;;;;5021753;28;20197;-48
2024/02/29 01:18:05;;;;;;;30.63;22.23;;;0.20;99.90;;;;;;5020848;28;20256;-45
2024/02/29 01:20:32;;;;;;;33.30;21.40;;;0.20;99.90;;;;;;5021036;28;20181;-44
2024/02/29 01:22:58;;;;;;;34.28;24.52;;;0.20;99.90;;;;;;5021864;28;20193;-47
2024/02/29 01:25:23;;;;;;;35.43;24.13;;;0.20;99.90;;;;;;5020478;28;20648;-56
2024/02/29 01:27:50;;;;;;;37.27;23.47;;;0.20;99.90;;;;;;5020255;28;20534;-57
2024/02/29 01:30:16;;;;;;;34.38;22.35;;;0.20;99.90;;;;;;5017290;28;20235;-56
2024/02/29 01:32:42;;;;;;;34.43;22.93;;;0.20;99.90;;;;;;5021413;28;20186;-54
2024/02/29 01:35:08;;;;;;;34.93;24.40;;;0.20;99.90;;;;;;5021604;28;20190;-56
2024/02/29 01:37:34;;;;;;;30.55;22.10;;;0.30;99.90;;;;;;5020250;28;20190;-52
2024/02/29 01:40:00;;;;;;;36.23;22.43;;;0.30;99.90;;;;;;5021702;28;20182;-54
2024/02/29 01:42:25;;;;;;;34.63;23.27;;;0.30;99.90;;;;;;5020902;28;21161;-54
2024/02/29 01:44:55;;;;;;;36.83;22.70;;;0.30;99.90;;;;;;5020770;28;20247;-54
2024/02/29 01:47:25;;;;;;;31.52;23.73;;;0.30;99.90;;;;;;5021285;28;20795;-53
2024/02/29 01:49:59;;;;;;;36.40;23.65;;;0.30;99.90;;;;;;5052352;28;20218;-56
2024/02/29 01:52:28;;;;;;;39.88;23.92;;;0.30;99.90;;;;;;5021043;28;20209;-51
2024/02/29 01:54:54;;;;;;;37.10;23.80;;;0.20;99.90;;;;;;5020899;28;20175;-57
2024/02/29 01:57:20;;;;;;;39.97;24.90;;;0.20;99.90;;;;;;5020820;28;20221;-58
2024/02/29 01:59:46;;;;;;;36.53;23.33;;;0.30;99.90;;;;;;5020399;28;20444;-53
2024/02/29 02:02:12;;;;;;;43.28;23.50;;;0.30;99.90;;;;;;5020745;28;20182;-53
2024/02/29 02:04:38;;;;;;;38.60;23.50;;;0.30;99.90;;;;;;5021505;28;20194;-56
2024/02/29 02:07:04;;;;;;;43.67;24.10;;;0.20;99.90;;;;;;5020343;28;20223;-55
2024/02/29 02:09:30;;;;;;;32.45;21.77;;;0.20;99.90;;;;;;5020780;28;20648;-51
2024/02/29 02:11:56;;;;;;;40.63;24.13;;;0.20;99.90;;;;;;5020301;28;20193;-47
2024/02/29 02:14:22;;;;;;;36.80;23.57;;;0.20;99.90;;;;;;5020531;28;20247;-47
2024/02/29 02:16:48;;;;;;;37.05;23.77;;;0.20;99.90;;;;;;5020195;28;20292;-47
2024/02/29 02:19:15;;;;;;;34.92;23.70;;;0.10;99.90;;;;;;5019399;28;20298;-45
2024/02/29 02:21:41;;;;;;;46.20;24.23;;;0.10;99.90;;;;;;5020455;28;20650;-47
2024/02/29 02:24:07;;;;;;;38.58;24.75;;;0.10;99.90;;;;;;5019541;28;20284;-48
2024/02/29 02:26:33;;;;;;;39.10;25.50;;;0.00;99.90;;;;;;5021006;28;20193;-47
2024/02/29 02:29:01;;;;;;;35.80;23.67;;;0.00;99.90;;;;;;5020467;28;20189;-45
2024/02/29 02:31:27;;;;;;;42.15;24.10;;;0.00;99.90;;;;;;5020049;28;20213;-47
2024/02/29 02:33:52;;;;;;;41.57;24.90;;;-0.10;99.90;;;;;;5019932;28;20180;-50
2024/02/29 02:36:18;;;;;;;30.97;22.77;;;-0.10;99.90;;;;;;5019689;28;20188;-48
2024/02/29 02:38:43;;;;;;;33.03;22.90;;;-0.10;99.90;;;;;;5020262;28;20181;-47
2024/02/29 02:41:09;;;;;;;37.30;23.33;;;-0.20;99.90;;;;;;5019954;28;20184;-49
2024/02/29 02:43:34;;;;;;;41.70;23.20;;;-0.20;99.90;;;;;;5018590;28;20244;-53
2024/02/29 02:46:00;;;;;;;34.43;21.20;;;-0.20;99.90;;;;;;5020108;28;20187;-47
2024/02/29 02:48:26;;;;;;;34.60;23.43;;;-0.20;99.90;;;;;;5019278;28;20521;-48
2024/02/29 02:50:51;;;;;;;28.60;22.90;;;-0.20;99.90;;;;;;5019256;28;20251;-53
2024/02/29 02:53:17;;;;;;;37.83;23.37;;;-0.30;99.90;;;;;;5019344;28;20173;-46
2024/02/29 02:55:43;;;;;;;34.58;22.00;;;-0.30;99.90;;;;;;5018695;28;20475;-47
2024/02/29 02:58:09;;;;;;;36.17;23.07;;;-0.30;99.90;;;;;;5020104;28;20316;-48
2024/02/29 03:00:34;;;;;;;32.97;22.83;;;-0.40;99.90;;;;;;5018874;28;20255;-57
2024/02/29 03:03:01;;;;;;;36.07;22.93;;;-0.40;99.90;;;;;;5019333;28;20792;-57
2024/02/29 03:05:27;;;;;;;37.05;23.55;;;-0.40;99.90;;;;;;5020073;28;20203;-56
2024/02/29 03:07:52;;;;;;;29.07;21.53;;;-0.50;99.90;;;;;;5019327;28;20680;-54
2024/02/29 03:10:18;;;;;;;34.13;22.80;;;-0.50;99.90;;;;;;5019640;28;20208;-57
2024/02/29 03:12:46;;;;;;;30.53;22.20;;;-0.50;99.90;;;;;;5018360;28;20185;-52
2024/02/29 03:15:12;;;;;;;38.03;24.45;;;-0.50;99.90;;;;;;5015585;28;20181;-56
2024/02/29 03:17:38;;;;;;;31.93;22.57;;;-0.50;99.90;;;;;;5019614;28;21027;-54
2024/02/29 03:20:11;;;;;;;40.27;23.03;;;-0.50;99.90;;;;;;5019168;28;20465;-53
2024/02/29 03:22:38;;;;;;;37.22;23.90;;;-0.50;99.90;;;;;;5020017;28;20673;-46
2024/02/29 03:25:04;;;;;;;40.30;25.08;;;-0.60;99.90;;;;;;5018962;28;20195;-50
2024/02/29 03:27:30;;;;;;;35.35;23.02;;;-0.60;99.90;;;;;;5019818;28;20189;-47
2024/02/29 03:29:56;;;;;;;33.30;23.73;;;-0.60;99.90;;;;;;5018786;28;20734;-46
2024/02/29 03:32:22;;;;;;;36.57;24.10;;;-0.70;99.90;;;;;;5018850;28;20178;-46
2024/02/29 03:34:48;;;;;;;35.40;23.92;;;-0.70;99.90;;;;;;5018893;28;20206;-51
2024/02/29 03:37:13;;;;;;;38.63;24.63;;;-0.70;99.90;;;;;;5020065;28;20175;-45
2024/02/29 03:39:39;;;;;;;37.10;23.80;;;-0.70;99.90;;;;;;5019638;28;20188;-47
2024/02/29 03:42:05;;;;;;;33.40;22.63;;;-0.80;99.90;;;;;;5018834;28;20191;-50
2024/02/29 03:44:30;;;;;;;32.80;23.70;;;-0.80;99.90;;;;;;5019004;28;20198;-46
2024/02/29 03:46:56;;;;;;;40.70;24.10;;;-0.80;99.90;;;;;;5018368;28;20183;-44
2024/02/29 03:49:21;;;;;;;34.07;22.67;;;-0.80;99.90;;;;;;5019047;28;20176;-50
2024/02/29 03:51:47;;;;;;;36.63;22.10;;;-0.80;99.90;;;;;;5019528;28;20675;-48
2024/02/29 03:54:12;;;;;;;33.23;22.57;;;-0.80;99.90;;;;;;5018555;28;20189;-48
2024/02/29 03:56:38;;;;;;;41.57;21.87;;;-0.80;99.90;;;;;;5019357;28;20288;-52
2024/02/29 03:59:04;;;;;;;34.90;21.70;;;-0.80;99.90;;;;;;5018666;28;20184;-45
2024/02/29 04:01:30;;;;;;;42.13;23.52;;;-0.80;99.90;;;;;;5018942;28;20545;-51
2024/02/29 04:03:56;;;;;;;41.13;25.00;;;-0.80;99.90;;;;;;5017272;28;20187;-46
2024/02/29 04:06:21;;;;;;;41.83;23.57;;;-0.80;99.90;;;;;;5019233;28;20267;-49
2024/02/29 04:08:47;;;;;;;32.30;23.03;;;-0.80;99.90;;;;;;5019455;28;20215;-50
2024/02/29 04:11:12;;;;;;;36.70;24.70;;;-0.80;99.90;;;;;;5016961;28;21175;-45
2024/02/29 04:13:38;;;;;;;37.00;23.00;;;-0.80;99.90;;;;;;5017606;28;20242;-51
2024/02/29 04:16:04;;;;;;;32.63;23.02;;;-0.80;99.90;;;;;;5017750;28;20185;-45
2024/02/29 04:18:30;;;;;;;32.08;21.25;;;-0.80;99.90;;;;;;5018443;28;20237;-47
2024/02/29 04:20:56;;;;;;;33.47;22.27;;;-0.80;99.90;;;;;;5018921;28;20654;-50
2024/02/29 04:23:21;;;;;;;33.00;21.10;;;-0.80;99.90;;;;;;5017977;28;20336;-51
2024/02/29 04:25:47;;;;;;;42.57;23.87;;;-0.80;99.90;;;;;;5019441;28;20238;-48
2024/02/29 04:28:14;;;;;;;29.17;21.90;;;-0.80;99.90;;;;;;5018443;28;20188;-52
2024/02/29 04:30:42;;;;;;;32.20;22.70;;;-0.90;99.90;;;;;;5018562;28;20205;-48
2024/02/29 04:33:08;;;;;;;38.75;23.10;;;-0.90;99.90;;;;;;5018924;28;20262;-48
2024/02/29 04:35:33;;;;;;;36.20;22.67;;;-0.90;99.90;;;;;;5018791;28;20183;-51
2024/02/29 04:37:59;;;;;;;35.47;21.77;;;-0.90;99.90;;;;;;5018590;28;20537;-47
2024/02/29 04:40:29;;;;;;;34.70;22.10;;;-0.90;99.90;;;;;;5018649;28;20203;-48
2024/02/29 04:42:55;;;;;;;38.95;23.67;;;-0.90;99.90;;;;;;5018469;28;20201;-46
2024/02/29 04:45:23;;;;;;;46.03;23.30;;;-0.90;99.90;;;;;;5018193;28;21106;-55
2024/02/29 04:47:49;;;;;;;36.08;24.65;;;-0.90;99.90;;;;;;5018422;28;20438;-57
2024/02/29 04:50:15;;;;;;;42.23;24.97;;;-0.90;99.90;;;;;;5018611;28;20561;-57
2024/02/29 04:52:40;;;;;;;40.97;21.77;;;-0.80;99.90;;;;;;5018597;28;20271;-57
2024/02/29 04:55:06;;;;;;;56.03;28.70;;;-0.80;99.90;;;;;;5019521;28;20545;-56
2024/02/29 04:57:32;;;;;;;36.27;22.23;;;-0.70;99.90;;;;;;5021009;28;20533;-53
2024/02/29 04:59:58;;;;;;;47.10;23.17;;;-0.60;99.90;;;;;;5022254;28;20444;-55
2024/02/29 05:02:23;;;;;;;37.37;22.77;;;-0.60;99.90;;;;;;5021525;28;20197;-54
2024/02/29 05:04:49;;;;;;;42.27;23.40;;;-0.50;99.90;;;;;;5021524;28;21051;-57
2024/02/29 05:07:14;;;;;;;43.10;25.20;;;-0.50;99.90;;;;;;5021627;28;20269;-56
2024/02/29 05:09:40;;;;;;;50.50;26.70;;;-0.40;99.90;;;;;;5020962;28;20191;-51
2024/02/29 05:12:06;;;;;;;43.13;24.83;;;-0.40;99.90;;;;;;5021835;28;20184;-54
2024/02/29 05:14:31;;;;;;;54.27;25.30;;;-0.30;99.90;;;;;;5020739;28;20193;-56
2024/02/29 05:16:58;;;;;;;42.57;24.27;;;-0.30;99.90;;;;;;5021650;28;20431;-56
2024/02/29 05:19:23;;;;;;;43.00;25.15;;;-0.20;99.90;;;;;;5020037;28;20731;-56
2024/02/29 05:21:51;;;;;;;41.73;24.03;;;-0.10;99.90;;;;;;5019103;28;20243;-53
2024/02/29 05:24:17;;;;;;;47.45;25.52;;;-0.10;99.90;;;;;;5021676;28;20188;-51
2024/02/29 05:26:44;;;;;;;44.50;24.25;;;0.00;99.90;;;;;;5021627;28;20992;-52
2024/02/29 05:29:09;;;;;;;44.28;24.08;;;0.00;99.90;;;;;;5021753;28;20240;-56
2024/02/29 05:31:36;;;;;;;49.57;25.30;;;0.10;99.90;;;;;;5021347;28;21036;-55
2024/02/29 05:34:02;;;;;;;51.42;24.15;;;0.10;99.90;;;;;;5021956;28;20185;-55
2024/02/29 05:36:27;;;;;;;53.70;24.57;;;0.20;99.90;;;;;;5021112;28;20180;-52
2024/02/29 05:38:54;;;;;;;54.37;25.90;;;0.20;99.90;;;;;;5021446;28;20251;-56
2024/02/29 05:41:20;;;;;;;55.88;25.38;;;0.20;99.90;;;;;;5021239;28;20304;-56
2024/02/29 05:43:46;;;;;;;47.53;26.00;;;0.30;99.90;;;;;;5020715;28;20191;-47
2024/02/29 05:46:12;;;;;;;45.65;24.48;;;0.30;99.90;;;;;;5020910;28;20453;-47
2024/02/29 05:48:39;;;;;;;49.00;25.48;;;0.30;99.90;;;;;;5019273;28;20909;-48
2024/02/29 05:51:07;;;;;;;52.08;26.60;;;0.40;99.90;;;;;;5020137;28;20213;-45
2024/02/29 05:53:32;;;;;;;48.70;26.10;;;0.40;99.90;;;;;;5019836;28;20272;-47
2024/02/29 05:55:58;;;;;;;58.67;27.87;;;0.50;99.90;;;;;;5020813;28;20705;-50
2024/02/29 05:58:24;;;;;;;55.97;26.67;;;0.60;99.90;;;;;;5021098;28;20269;-50
2024/02/29 06:00:50;;;;;;;57.40;26.33;;;0.60;99.90;;;;;;5020064;28;20614;-50
2024/02/29 06:03:15;;;;;;;47.60;25.83;;;0.60;99.90;;;;;;5020817;28;20200;-51
2024/02/29 06:05:41;;;;;;;48.03;26.70;;;0.60;99.90;;;;;;5020082;28;20197;-52
2024/02/29 06:08:07;;;;;;;56.53;25.60;;;0.60;99.90;;;;;;5020802;28;20189;-50
2024/02/29 06:10:33;;;;;;;55.58;26.30;;;0.60;99.90;;;;;;5019894;28;20568;-44
2024/02/29 06:12:59;;;;;;;51.57;26.10;;;0.70;99.90;;;;;;5020851;28;20174;-50
2024/02/29 06:15:24;;;;;;;55.50;25.93;;;0.70;99.90;;;;;;5020378;28;21109;-45
2024/02/29 06:17:50;;;;;;;54.03;26.37;;;0.80;99.90;;;;;;5015711;28;20265;-49
2024/02/29 06:20:15;;;;;;;65.10;28.20;;;0.90;99.90;;;;;;5019643;28;20197;-51
2024/02/29 06:22:42;;;;;;;57.97;29.50;;;0.90;99.90;;;;;;5020185;28;20325;-50
2024/02/29 06:25:10;;;;;;;56.72;26.65;;;0.90;99.90;;;;;;5020366;28;20274;-56
2024/02/29 06:27:37;;;;;;;54.15;29.75;;;1.00;99.90;;;;;;5018000;28;20209;-55
2024/02/29 06:30:04;;;;;;;47.00;28.85;;;1.10;99.90;;;;;;5020795;28;20272;-55
2024/02/29 06:32:30;;;;;;;50.47;26.20;;;1.10;99.90;;;;;;5020966;28;20182;-50
2024/02/29 06:34:56;;;;;;;52.40;27.90;;;1.20;99.90;;;;;;5019512;28;20201;-55
2024/02/29 06:37:21;;;;;;;49.00;25.70;;;1.30;99.90;;;;;;5019176;28;20217;-55
2024/02/29 06:39:47;;;;;;;51.80;27.20;;;1.40;99.90;;;;;;5020378;28;20210;-52
2024/02/29 06:42:13;;;;;;;49.97;26.53;;;1.40;99.90;;;;;;5020046;28;20193;-54
2024/02/29 06:44:38;;;;;;;56.87;29.03;;;1.50;99.90;;;;;;5019498;28;20190;-54
2024/02/29 06:47:04;;;;;;;42.67;27.87;;;1.50;99.90;;;;;;5019460;28;20190;-54
2024/02/29 06:49:30;;;;;;;46.90;27.40;;;1.60;99.90;;;;;;5018564;28;20194;-56
2024/02/29 06:51:56;;;;;;;53.42;29.25;;;1.60;99.90;;;;;;5019960;28;20209;-55
2024/02/29 06:54:22;;;;;;;48.25;27.98;;;1.60;99.90;;;;;;5020037;28;20681;-53
2024/02/29 06:56:47;;;;;;;57.07;30.17;;;1.70;99.90;;;;;;5019651;28;20170;-52
2024/02/29 06:59:13;;;;;;;56.87;25.90;;;1.70;99.90;;;;;;5020194;28;20214;-51
2024/02/29 07:01:39;;;;;;;49.77;27.37;;;1.70;99.90;;;;;;5019942;28;20312;-53
2024/02/29 07:04:06;;;;;;;55.37;30.10;;;1.80;99.90;;;;;;5018745;28;20432;-52
2024/02/29 07:06:32;;;;;;;53.45;28.45;;;1.80;99.90;;;;;;5019875;28;20228;-55
2024/02/29 07:08:58;;;;;;;50.03;28.67;;;1.80;99.90;;;;;;5018881;28;20273;-51
2024/02/29 07:11:25;;;;;;;55.67;29.67;;;1.90;99.90;;;;;;5018708;28;20910;-53
2024/02/29 07:13:51;;;;;;;53.00;29.13;;;2.00;99.90;;;;;;5018980;28;20182;-53
2024/02/29 07:16:19;;;;;;;55.30;29.50;;;2.00;99.90;;;;;;5019003;28;20367;-54
2024/02/29 07:18:44;;;;;;;57.40;30.50;;;2.00;99.90;;;;;;5018410;28;20284;-53
2024/02/29 07:21:10;;;;;;;48.43;28.03;;;2.10;99.90;;;;;;5019293;28;20937;-48
2024/02/29 07:23:37;;;;;;;40.63;26.77;;;2.10;99.90;;;;;;5020155;28;20182;-52
2024/02/29 07:26:03;;;;;;;50.10;29.48;;;2.20;99.90;;;;;;5018943;28;20182;-54
2024/02/29 07:28:29;;;;;;;51.28;28.48;;;2.30;99.90;;;;;;5015711;28;20186;-52
2024/02/29 07:30:56;;;;;;;57.47;28.52;;;2.50;99.90;;;;;;5018915;28;20218;-54
2024/02/29 07:33:22;;;;;;;49.20;28.00;;;2.50;99.90;;;;;;5019382;28;20250;-52
2024/02/29 07:35:48;;;;;;;41.30;26.93;;;2.60;99.90;;;;;;5018473;28;20776;-51
2024/02/29 07:38:14;;;;;;;57.15;29.55;;;2.60;99.90;;;;;;5019343;28;20506;-54
2024/02/29 07:40:39;;;;;;;47.10;26.63;;;2.70;99.90;;;;;;5019847;28;20672;-52
2024/02/29 07:43:05;;;;;;;52.00;26.37;;;2.70;99.90;;;;;;5019274;28;20645;-54
2024/02/29 07:45:31;;;;;;;49.57;26.37;;;2.80;99.90;;;;;;5019051;28;20186;-53
2024/02/29 07:47:57;;;;;;;44.07;26.60;;;2.80;99.90;;;;;;5018820;28;20441;-50
2024/02/29 07:50:23;;;;;;;52.15;27.17;;;3.00;99.90;;;;;;5019391;28;20194;-50
2024/02/29 07:52:49;;;;;;;43.63;27.10;;;3.00;99.90;;;;;;5019365;28;20202;-55
2024/02/29 07:55:16;;;;;;;45.47;26.83;;;3.10;99.90;;;;;;5018623;28;20222;-55
2024/02/29 07:57:42;;;;;;;37.50;25.05;;;3.20;99.90;;;;;;5018577;28;20231;-49
2024/02/29 08:00:10;;;;;;;50.65;26.48;;;3.30;99.90;;;;;;5018767;28;20778;-53
2024/02/29 08:02:36;;;;;;;49.83;27.35;;;3.30;99.90;;;;;;5019296;28;20182;-55
2024/02/29 08:05:02;;;;;;;52.05;28.33;;;3.40;99.90;;;;;;5018287;28;20248;-54
2024/02/29 08:07:29;;;;;;;44.33;26.70;;;3.50;99.90;;;;;;5017734;28;20182;-46
2024/02/29 08:09:55;;;;;;;45.97;25.52;;;3.70;99.90;;;;;;5019521;28;20293;-54
2024/02/29 08:12:20;;;;;;;44.23;25.60;;;3.80;99.90;;;;;;5018651;28;20179;-55
2024/02/29 08:14:46;;;;;;;44.03;25.13;;;4.00;99.90;;;;;;5019159;28;20588;-50
2024/02/29 08:17:12;;;;;;;42.50;24.27;;;4.20;99.90;;;;;;5018363;28;21424;-49
2024/02/29 08:19:38;;;;;;;41.70;26.20;;;4.50;99.90;;;;;;5018282;28;20186;-49
2024/02/29 08:22:03;;;;;;;44.87;26.97;;;4.60;99.90;;;;;;5017797;28;20240;-57
2024/02/29 08:24:29;;;;;;;44.20;28.87;;;4.90;99.90;;;;;;5018835;28;21049;-54
2024/02/29 08:26:55;;;;;;;41.20;27.47;;;5.20;99.90;;;;;;5019036;28;20179;-57
2024/02/29 08:29:20;;;;;;;47.13;30.33;;;5.60;99.90;;;;;;5019998;28;20190;-52
2024/02/29 08:31:46;;;;;;;48.10;29.97;;;6.20;99.90;;;;;;5023062;28;20206;-52
2024/02/29 08:34:11;;;;;;;46.27;29.70;;;6.70;99.90;;;;;;5021731;28;20186;-55
2024/02/29 08:36:37;;;;;;;41.23;28.33;;;7.10;37.60;;;;;;5022580;28;20641;-56
2024/02/29 08:39:03;;;;;;;35.00;26.90;;;7.50;10.30;;;;;;5022753;28;20645;-53
2024/02/29 08:41:28;;;;;;;35.17;26.97;;;7.90;1.00;;;;;;5021851;28;20241;-53
2024/02/29 08:43:54;;;;;;;29.13;24.67;;;8.30;1.00;;;;;;5022536;28;20599;-56
2024/02/29 08:46:20;;;;;;;27.33;22.90;;;8.40;1.00;;;;;;5021692;28;20907;-56
2024/02/29 08:48:48;;;;;;;22.77;20.47;;;8.80;1.00;;;;;;5022092;28;20178;-55
2024/02/29 08:51:14;;;;;;;21.67;18.33;;;9.10;1.00;;;;;;5021724;28;20297;-57
2024/02/29 08:53:39;;;;;;;22.83;20.43;;;9.40;1.00;;;;;;5022275;28;20433;-52
2024/02/29 08:56:05;;;;;;;21.33;19.20;;;9.80;1.00;;;;;;5022200;28;20547;-56
2024/02/29 08:58:30;;;;;;;22.17;19.77;;;10.00;99.90;;;;;;5021617;28;21370;-56
2024/02/29 09:00:56;;;;;;;20.23;17.93;;;9.80;27.40;;;;;;5022366;28;20191;-56
2024/02/29 09:03:22;;;;;;;21.33;19.20;;;10.00;99.90;;;;;;5022931;28;20244;-51
2024/02/29 09:05:49;;;;;;;21.23;19.20;;;10.40;99.90;;;;;;5023259;28;20214;-50
2024/02/29 09:08:14;;;;;;;22.07;19.77;;;10.50;99.90;;;;;;5023365;28;20424;-50
2024/02/29 09:10:40;;;;;;;22.73;20.40;;;10.60;81.70;;;;;;5023194;28;21226;-57
2024/02/29 09:13:06;;;;;;;22.60;20.30;;;10.70;1.00;;;;;;5022926;28;20190;-59
2024/02/29 09:15:32;;;;;;;20.90;18.80;;;10.80;99.90;;;;;;5023202;28;20190;-55
2024/02/29 09:17:58;;;;;;;20.70;18.73;;;10.60;1.00;;;;;;5022675;28;20230;-56
2024/02/29 09:20:23;;;;;;;20.97;18.77;;;11.00;99.90;;;;;;5023071;28;20436;-58
2024/02/29 09:22:49;;;;;;;22.03;19.93;;;11.40;1.00;;;;;;5022268;28;20581;-54
2024/02/29 09:25:17;;;;;;;21.50;19.30;;;11.20;1.00;;;;;;5022332;28;20313;-54
2024/02/29 09:27:43;;;;;;;22.10;19.97;;;11.30;99.90;;;;;;5021214;28;20186;-57
2024/02/29 09:30:09;;;;;;;21.80;19.70;;;11.40;99.90;;;;;;5021760;28;20511;-55
2024/02/29 09:32:34;;;;;;;21.30;19.00;;;11.60;99.90;;;;;;5021511;28;21373;-53
2024/02/29 09:35:00;;;;;;;20.20;18.30;;;11.30;99.90;;;;;;5021915;28;20536;-54
2024/02/29 09:37:26;;;;;;;22.83;20.37;;;11.40;99.90;;;;;;5017612;28;20193;-53
2024/02/29 09:39:51;;;;;;;22.00;19.80;;;11.10;43.80;;;;;;5021347;28;20194;-55
2024/02/29 09:42:17;;;;;;;21.10;18.97;;;11.20;95.80;;;;;;5020106;28;20198;-55
2024/02/29 09:44:43;;;;;;;22.90;20.60;;;11.10;91.60;;;;;;5021083;28;20197;-55
2024/02/29 09:47:11;;;;;;;22.27;20.17;;;10.70;95.60;;;;;;5020207;28;20190;-49
2024/02/29 09:49:37;;;;;;;22.77;20.30;;;10.50;99.90;;;;;;5020804;28;20440;-49
2024/02/29 09:52:03;;;;;;;21.87;19.77;;;10.90;99.90;;;;;;5020695;28;20469;-47
2024/02/29 09:54:33;;;;;;;22.43;20.10;;;11.10;99.90;;;;;;5020449;28;20190;-53
2024/02/29 09:56:58;;;;;;;24.23;21.80;;;11.10;99.90;;;;;;5021246;28;20429;-49
2024/02/29 09:59:25;;;;;;;22.80;20.57;;;10.90;99.90;;;;;;5020529;28;20433;-49
2024/02/29 10:01:55;;;;;;;23.27;20.90;;;10.50;99.90;;;;;;5020933;28;20449;-47
2024/02/29 10:04:21;;;;;;;23.63;21.13;;;10.30;99.90;;;;;;5019866;28;20436;-51
2024/02/29 10:06:46;;;;;;;25.23;22.53;;;10.30;1.00;;;;;;5021037;28;20475;-48
2024/02/29 10:09:12;;;;;;;24.40;22.07;;;11.10;1.00;;;;;;5019419;28;21123;-47
2024/02/29 10:11:41;;;;;;;25.87;22.07;;;12.00;99.90;;;;;;5020647;28;20214;-54
2024/02/29 10:14:20;;;;;;;23.43;21.20;;;12.80;97.80;;;;;;5015042;28;20186;-50
2024/02/29 10:16:51;;;;;;;25.20;22.60;;;13.60;1.00;;;;;;5020813;28;20483;-48
2024/02/29 10:19:17;;;;;;;23.53;21.23;;;14.30;1.00;;;;;;5001512;28;20548;-48
2024/02/29 10:21:43;;;;;;;23.67;21.27;;;14.80;1.00;;;;;;4999832;28;20912;-53
2024/02/29 10:24:09;;;;;;;25.27;22.80;;;15.00;1.00;;;;;;5001083;28;22153;-52
2024/02/29 10:26:34;;;;;;;26.50;23.83;;;14.90;1.00;;;;;;5000633;28;20191;-47
2024/02/29 10:29:04;;;;;;;25.97;23.47;;;15.40;1.00;;;;;;4999936;28;20183;-49
2024/02/29 10:31:30;;;;;;;24.87;22.67;;;15.90;1.00;;;;;;5000167;28;20234;-47
2024/02/29 10:33:56;;;;;;;26.33;23.77;;;15.90;1.00;;;;;;5001138;28;20818;-47
2024/02/29 10:36:22;;;;;;;26.97;24.27;;;15.80;1.00;;;;;;5001134;28;20190;-51
2024/02/29 10:38:49;;;;;;;25.07;22.67;;;15.60;1.00;;;;;;5000176;28;20229;-53
2024/02/29 10:41:16;;;;;;;22.63;20.33;;;15.30;1.00;;;;;;4994122;28;20440;-55
2024/02/29 10:43:45;;;;;;;23.40;21.20;;;15.70;1.00;;;;;;4999317;28;20440;-52
2024/02/29 10:46:14;;;;;;;24.17;21.87;;;16.10;1.00;;;;;;5000424;28;20438;-54
2024/02/29 10:48:49;;;;;;;23.87;21.60;;;16.70;1.00;;;;;;4999587;28;20508;-56
2024/02/29 10:51:54;;;;;;;22.60;20.30;;;17.00;1.00;;;;;;5000254;28;20548;-56
2024/02/29 10:54:29;;;;;;;23.90;21.70;;;17.40;1.00;;;;;;5000952;28;20956;-51
2024/02/29 10:56:56;;;;;;;24.00;21.80;;;17.70;1.00;;;;;;4999822;28;20433;-52
2024/02/29 10:59:23;;;;;;;24.30;22.10;;;17.60;99.90;;;;;;5000252;28;20438;-56
2024/02/29 11:01:49;;;;;;;22.50;20.30;;;17.80;99.90;;;;;;4997367;28;20449;-56
2024/02/29 11:04:15;;;;;;;23.63;21.47;;;18.20;99.90;;;;;;4998966;28;20438;-57
2024/02/29 11:06:48;;;;;;;23.03;20.63;;;18.50;99.90;;;;;;4999564;28;20259;-53
2024/02/29 11:09:20;;;;;;;25.20;22.90;;;18.70;99.90;;;;;;4999933;28;20195;-47
2024/02/29 11:11:47;;;;;;;24.23;22.03;;;18.70;99.90;;;;;;4998944;28;20462;-52
2024/02/29 11:14:17;;;;;;;23.60;21.40;;;18.90;99.90;;;;;;4995831;28;20434;-54
2024/02/29 11:16:47;;;;;;;22.23;20.20;;;19.20;99.90;;;;;;4998729;28;20430;-56
2024/02/29 11:19:14;;;;;;;22.87;20.93;;;19.00;99.90;;;;;;5018540;28;20476;-54
2024/02/29 11:21:41;;;;;;;23.73;21.60;;;18.80;99.90;;;;;;5018309;28;20571;-56
2024/02/29 11:24:09;;;;;;;22.07;20.07;;;18.70;99.90;;;;;;5019285;28;20548;-55
2024/02/29 11:26:36;;;;;;;22.83;20.83;;;18.60;99.90;;;;;;5018484;28;20218;-55
2024/02/29 11:29:19;;;;;;;22.60;20.70;;;19.00;99.90;;;;;;5017988;28;20575;-53
2024/02/29 11:31:49;;;;;;;21.83;19.93;;;19.10;99.90;;;;;;5018104;28;20567;-50
2024/02/29 11:34:18;;;;;;;23.17;21.10;;;18.40;99.90;;;;;;5018421;28;20437;-48
2024/02/29 11:36:47;;;;;;;23.40;21.30;;;18.20;99.90;;;;;;5018886;28;20472;-53
2024/02/29 11:39:14;;;;;;;22.97;20.77;;;18.30;99.90;;;;;;5018948;28;20544;-55
2024/02/29 11:41:40;;;;;;;22.93;20.83;;;18.50;99.90;;;;;;5018436;28;20440;-56
2024/02/29 11:44:07;;;;;;;22.53;20.53;;;18.70;99.90;;;;;;5018085;28;20989;-50
2024/02/29 11:46:32;;;;;;;23.07;20.97;;;18.90;99.90;;;;;;5019113;28;20918;-46
2024/02/29 11:48:58;;;;;;;22.53;20.53;;;19.00;99.90;;;;;;5018667;28;20432;-47
2024/02/29 11:51:24;;;;;;;23.67;21.47;;;19.20;99.90;;;;;;5018005;28;20680;-47
2024/02/29 11:53:50;;;;;;;23.53;21.30;;;19.30;99.90;;;;;;5018515;28;20510;-45
2024/02/29 11:56:16;;;;;;;22.50;20.53;;;19.40;99.90;;;;;;5018834;28;21041;-52
2024/02/29 11:58:43;;;;;;;24.40;22.17;;;19.10;99.90;;;;;;5018333;28;20187;-54
2024/02/29 12:01:12;;;;;;;22.77;20.77;;;18.30;99.90;;;;;;5018867;28;20877;-45
2024/02/29 12:03:37;;;;;;;21.80;19.57;;;17.30;99.90;;;;;;5018418;28;20444;-46
2024/02/29 12:06:03;;;;;;;23.43;21.43;;;15.90;99.90;;;;;;5022586;28;20437;-47
2024/02/29 12:08:30;;;;;;;24.43;22.07;;;15.30;99.90;;;;;;5022949;28;20185;-48
2024/02/29 12:10:59;;;;;;;23.27;20.87;;;14.30;99.90;;;;;;5019506;28;20476;-49
2024/02/29 12:13:29;;;;;;;22.10;20.00;;;13.70;99.90;;;;;;5022494;28;20506;-50
2024/02/29 12:15:55;;;;;;;21.17;19.00;;;13.50;99.90;;;;;;5022208;28;20487;-51
2024/02/29 12:18:22;;;;;;;21.97;19.83;;;12.70;99.90;;;;;;5022532;28;20476;-51
2024/02/29 12:20:48;;;;;;;20.67;18.67;;;12.60;99.90;;;;;;5021754;28;20807;-45
2024/02/29 12:23:23;;;;;;;21.67;19.53;;;12.10;1.00;;;;;;5020521;28;20447;-48
2024/02/29 12:25:49;;;;;;;21.67;19.50;;;11.80;1.00;;;;;;5021721;28;20440;-52
2024/02/29 12:28:15;;;;;;;22.50;20.30;;;11.60;1.00;;;;;;5022323;28;20439;-47